Time;durP1;ratioP1;P1;durP2;ratioP2;P2;SDS_P1;SDS_P2;PMS_P1;PMS_P2;Temp;Humidity;BMP_temperature;BMP_pressure;BME280_temperature;BME280_humidity;BME280_pressure;Samples;Min_cycle;Max_cycle;Signal;HPM_P1;HPM_P2
2020/12/05 00:04:02;;;;;;;12.30;6.97;;;;;;;7.16;72.88;97522.50;3651917;81;21048;-79
2020/12/05 00:09:04;;;;;;;9.63;6.43;;;;;;;7.24;73.00;97521.81;3650857;81;21390;-80
2020/12/05 00:14:06;;;;;;;14.73;8.63;;;;;;;7.28;72.99;97528.12;3651568;81;20985;-81
2020/12/05 00:19:08;;;;;;;12.97;7.23;;;;;;;7.32;72.97;97545.09;3669191;80;21032;-80
2020/12/05 00:24:10;;;;;;;18.30;9.60;;;;;;;7.28;72.60;97542.00;3669275;80;20992;-80
2020/12/05 00:29:12;;;;;;;13.77;8.23;;;;;;;7.16;72.33;97533.16;3673686;80;20942;-80
2020/12/05 00:34:14;;;;;;;14.80;8.00;;;;;;;7.00;72.26;97542.77;3675393;80;21050;-81
2020/12/05 00:39:18;;;;;;;13.27;7.90;;;;;;;6.83;72.61;97528.70;3675181;80;20991;-80
2020/12/05 00:44:20;;;;;;;14.40;8.27;;;;;;;6.76;72.87;97527.52;3674847;80;21003;-80
2020/12/05 00:49:22;;;;;;;11.67;7.17;;;;;;;6.75;73.11;97537.36;3674907;80;20928;-80
2020/12/05 00:54:26;;;;;;;13.07;7.90;;;;;;;6.74;73.27;97523.80;3675039;80;21038;-80
2020/12/05 00:59:30;;;;;;;15.03;8.23;;;;;;;6.73;73.42;97530.23;3660481;80;21000;-80
2020/12/05 01:04:32;;;;;;;13.03;8.30;;;;;;;6.74;73.41;97522.47;3605679;82;21043;-80
2020/12/05 01:09:35;;;;;;;13.07;7.87;;;;;;;6.78;73.57;97526.13;3608098;81;21107;-80
2020/12/05 01:14:37;;;;;;;15.10;8.87;;;;;;;6.85;73.64;97536.39;3666060;81;21372;-80
2020/12/05 01:19:39;;;;;;;13.60;8.27;;;;;;;6.89;73.71;97533.39;3668428;81;20996;-80
2020/12/05 01:24:41;;;;;;;13.13;8.50;;;;;;;6.93;73.61;97515.75;3668809;80;21424;-80
2020/12/05 01:29:45;;;;;;;15.20;8.40;;;;;;;7.01;73.69;97528.38;3668674;81;21028;-81
2020/12/05 01:34:46;;;;;;;12.87;7.70;;;;;;;7.07;73.66;97544.27;3668868;81;21068;-80
2020/12/05 01:39:49;;;;;;;15.63;8.57;;;;;;;7.08;73.52;97543.16;3668845;80;21000;-80
2020/12/05 01:44:51;;;;;;;15.63;9.40;;;;;;;7.01;73.03;97540.91;3668674;81;21055;-80
2020/12/05 01:49:53;;;;;;;16.23;9.57;;;;;;;6.85;72.63;97533.73;3669187;80;21063;-81
2020/12/05 01:54:55;;;;;;;18.97;11.70;;;;;;;6.62;72.67;97525.61;3668950;80;21047;-80
2020/12/05 01:59:57;;;;;;;19.60;10.67;;;;;;;6.49;72.89;97529.02;3649998;80;21351;-80
2020/12/05 02:05:17;;;;;;;9.00;5.53;;;;;;;6.43;73.46;97512.35;3605502;82;21000;-80
2020/12/05 02:10:33;;;;;;;11.05;6.08;;;;;;;6.54;74.13;97532.94;3617237;81;20984;-80
2020/12/05 02:15:37;;;;;;;10.50;6.00;;;;;;;6.72;74.39;97528.64;3667271;81;21452;-79
2020/12/05 02:20:40;;;;;;;9.33;6.10;;;;;;;6.89;74.43;97523.30;3668504;80;21028;-79
2020/12/05 02:25:45;;;;;;;8.30;5.87;;;;;;;7.02;74.28;97528.63;3668778;80;20980;-79
2020/12/05 02:30:48;;;;;;;10.70;6.83;;;;;;;7.14;74.17;97522.02;3669174;80;21570;-79
2020/12/05 02:35:50;;;;;;;12.23;7.67;;;;;;;7.27;74.10;97525.21;3668816;80;21040;-79
2020/12/05 02:40:53;;;;;;;11.27;6.80;;;;;;;7.38;73.92;97526.36;3669021;80;20999;-79
2020/12/05 02:45:56;;;;;;;12.53;7.70;;;;;;;7.45;73.66;97532.84;3668810;80;20984;-79
2020/12/05 02:50:58;;;;;;;12.97;8.10;;;;;;;7.47;73.45;97524.02;3668589;81;21055;-79
2020/12/05 02:56:00;;;;;;;13.27;7.50;;;;;;;7.53;73.45;97524.70;3668416;80;21048;-79
2020/12/05 03:01:02;;;;;;;15.47;8.30;;;;;;;7.52;73.20;97517.80;3653510;81;21036;-79
2020/12/05 03:06:04;;;;;;;14.03;7.80;;;;;;;7.50;73.18;97524.75;3668857;81;21008;-79
2020/12/05 03:11:07;;;;;;;13.43;7.93;;;;;;;7.48;73.07;97516.25;3667339;80;21047;-80
2020/12/05 03:16:09;;;;;;;11.13;6.93;;;;;;;7.48;73.05;97519.47;3667981;79;21328;-80
2020/12/05 03:21:11;;;;;;;12.57;7.40;;;;;;;7.46;73.12;97511.00;3668579;80;20968;-80
2020/12/05 03:26:14;;;;;;;10.37;6.27;;;;;;;7.46;73.13;97511.78;3669820;80;20990;-80
2020/12/05 03:31:26;;;;;;;8.07;5.60;;;;;;;7.51;73.16;97518.88;3675487;80;21407;-80
2020/12/05 03:36:19;;;;;;;9.03;5.93;;;;;;;7.58;73.16;97515.25;3673237;80;21368;-80
2020/12/05 03:41:23;;;;;;;8.40;6.03;;;;;;;7.64;73.23;97515.93;3675150;80;21486;-80
2020/12/05 03:46:25;;;;;;;10.93;6.03;;;;;;;7.67;73.07;97526.80;3675334;80;20994;-80
2020/12/05 03:51:27;;;;;;;10.37;6.63;;;;;;;7.70;72.90;97519.53;3675346;80;21552;-80
2020/12/05 03:56:29;;;;;;;9.33;5.70;;;;;;;7.73;72.79;97525.36;3674990;80;21010;-80
2020/12/05 04:01:32;;;;;;;8.57;5.87;;;;;;;7.76;72.88;97527.42;3668424;80;21062;-81
2020/12/05 04:06:34;;;;;;;9.13;6.47;;;;;;;7.79;72.82;97532.15;3664243;81;21026;-80
2020/12/05 04:11:38;;;;;;;8.30;5.50;;;;;;;7.78;72.71;97530.56;3664785;81;21007;-80
2020/12/05 04:16:40;;;;;;;6.83;4.93;;;;;;;7.82;72.78;97532.88;3668534;81;21000;-80
2020/12/05 04:21:41;;;;;;;7.00;5.33;;;;;;;7.93;72.80;97527.55;3669154;81;21459;-81
2020/12/05 04:26:43;;;;;;;8.80;6.03;;;;;;;8.02;72.75;97524.98;3651951;81;21029;-80
2020/12/05 04:31:48;;;;;;;7.93;5.27;;;;;;;8.08;72.64;97520.31;3605961;81;20977;-80
2020/12/05 04:36:50;;;;;;;7.33;5.53;;;;;;;8.15;72.55;97523.34;3606050;82;21050;-79
2020/12/05 04:41:52;;;;;;;7.60;5.43;;;;;;;8.25;72.42;97516.42;3605657;82;20950;-80
2020/12/05 04:46:54;;;;;;;8.27;5.13;;;;;;;8.34;72.35;97521.84;3605290;81;21048;-80
2020/12/05 04:52:26;;;;;;;8.87;5.13;;;;;;;8.44;72.25;97520.81;3605823;81;21326;-80
2020/12/05 04:57:28;;;;;;;7.53;5.00;;;;;;;8.59;72.07;97525.80;3605703;81;21073;-80
2020/12/05 05:02:32;;;;;;;7.50;5.07;;;;;;;8.70;71.77;97527.11;3639715;79;20979;-80
2020/12/05 05:07:38;;;;;;;8.97;5.23;;;;;;;8.75;71.55;97535.53;3664981;81;21075;-80
2020/12/05 05:12:40;;;;;;;5.73;4.90;;;;;;;8.76;71.32;97549.13;3663289;81;21000;-80
2020/12/05 05:17:49;;;;;;;8.97;5.83;;;;;;;8.77;71.28;97549.34;3638161;81;21060;-79
2020/12/05 05:22:55;;;;;;;8.03;5.13;;;;;;;8.76;71.15;97542.98;3669272;81;21449;-80
2020/12/05 05:27:59;;;;;;;8.37;5.00;;;;;;;8.75;71.01;97554.77;3662532;79;21004;-80
2020/12/05 05:33:05;;;;;;;7.57;5.43;;;;;;;8.76;70.96;97561.14;3668783;80;21090;-80
2020/12/05 05:38:07;;;;;;;7.67;5.53;;;;;;;8.79;70.95;97566.42;3668979;81;21047;-80
2020/12/05 05:43:19;;;;;;;7.93;5.93;;;;;;;8.81;71.03;97560.99;3668609;80;20953;-80
2020/12/05 05:48:21;;;;;;;8.37;6.07;;;;;;;8.82;70.79;97569.25;3668614;80;20996;-80
2020/12/05 05:53:23;;;;;;;8.23;6.43;;;;;;;8.78;70.61;97576.85;3668597;80;21476;-80
2020/12/05 05:58:25;;;;;;;11.63;7.07;;;;;;;8.71;70.62;97591.41;3668732;81;21039;-80
2020/12/05 06:03:35;;;;;;;10.70;7.27;;;;;;;8.69;70.69;97601.61;3662312;80;21435;-80
2020/12/05 06:08:39;;;;;;;10.03;6.47;;;;;;;8.65;70.68;97603.88;3662502;80;21074;-80
2020/12/05 06:13:43;;;;;;;7.17;4.70;;;;;;;8.62;70.71;97610.60;3665127;81;20928;-80
2020/12/05 06:18:47;;;;;;;11.97;7.43;;;;;;;8.65;70.78;97619.89;3668755;81;20960;-80
2020/12/05 06:23:53;;;;;;;11.57;7.03;;;;;;;8.65;70.91;97621.22;3668700;81;21476;-80
2020/12/05 06:28:56;;;;;;;7.30;5.37;;;;;;;8.63;70.82;97620.20;3667829;79;20984;-80
2020/12/05 06:33:59;;;;;;;8.40;5.70;;;;;;;8.60;70.76;97618.11;3668653;80;20980;-80
2020/12/05 06:39:16;;;;;;;9.70;7.03;;;;;;;8.62;70.84;97635.97;3668562;80;21036;-80
2020/12/05 06:44:23;;;;;;;9.97;6.93;;;;;;;8.64;70.81;97635.66;3668258;81;21011;-80
2020/12/05 06:49:40;;;;;;;9.73;6.33;;;;;;;8.64;70.84;97651.12;3668409;80;20980;-79
2020/12/05 06:55:00;;;;;;;8.68;5.90;;;;;;;8.62;70.78;97659.98;3666920;81;37651;-81
2020/12/05 07:00:24;;;;;;;10.77;6.73;;;;;;;8.62;70.78;97664.00;3667736;80;20987;-79
2020/12/05 07:05:40;;;;;;;10.77;6.87;;;;;;;8.66;70.81;97648.14;3673415;80;20994;-79
2020/12/05 07:10:58;;;;;;;10.93;6.57;;;;;;;8.69;70.82;97638.22;3673532;80;20959;-78
2020/12/05 07:16:21;;;;;;;11.13;7.37;;;;;;;8.71;70.77;97645.36;3669153;80;21036;-80
2020/12/05 07:21:26;;;;;;;10.50;7.50;;;;;;;8.76;70.79;97657.80;3667550;81;21063;-79
2020/12/05 07:26:28;;;;;;;10.87;6.77;;;;;;;8.79;70.69;97659.88;3654279;81;21017;-80
2020/12/05 07:31:31;;;;;;;12.53;7.43;;;;;;;8.89;70.82;97659.06;3605130;82;21034;-80
2020/12/05 07:36:38;;;;;;;13.20;7.90;;;;;;;9.04;70.75;97659.80;3629926;81;20990;-80
2020/12/05 07:41:40;;;;;;;13.87;8.63;;;;;;;9.18;70.67;97663.18;3623211;79;21054;-80
2020/12/05 07:46:42;;;;;;;11.93;7.03;;;;;;;9.32;70.46;97681.81;3637047;80;21023;-80
2020/12/05 07:51:48;;;;;;;9.77;6.50;;;;;;;9.45;70.28;97696.73;3668174;79;21067;-80
2020/12/05 07:56:50;;;;;;;11.17;6.90;;;;;;;9.55;70.00;97713.83;3639489;80;21030;-81
2020/12/05 08:02:05;;;;;;;18.27;10.83;;;;;;;9.67;69.85;97722.64;3648484;79;21011;-80
2020/12/05 08:07:41;;;;;;;14.67;10.30;;;;;;;9.75;69.68;97728.02;3625779;79;21055;-79
2020/12/05 08:12:52;;;;;;;18.23;10.43;;;;;;;9.81;69.62;97731.88;3642971;79;21048;-81
2020/12/05 08:17:55;;;;;;;14.73;10.07;;;;;;;9.84;69.42;97745.43;3652741;79;21067;-81
2020/12/05 08:22:57;;;;;;;16.10;9.80;;;;;;;9.86;69.27;97751.80;3698822;79;21082;-81
2020/12/05 08:28:03;;;;;;;19.17;10.33;;;;;;;9.86;69.19;97753.14;3667062;79;21048;-79
2020/12/05 08:33:04;;;;;;;13.13;8.20;;;;;;;9.82;69.02;97757.00;3676825;79;21063;-82
2020/12/05 08:38:14;;;;;;;13.83;8.30;;;;;;;9.85;69.04;97764.41;3606699;79;21031;-80
2020/12/05 08:43:22;;;;;;;13.13;8.47;;;;;;;9.90;69.11;97780.30;3658640;79;21044;-81
2020/12/05 08:48:27;;;;;;;11.60;7.70;;;;;;;9.94;69.07;97769.78;3658480;79;21025;-83
2020/12/05 08:53:30;;;;;;;11.07;7.30;;;;;;;9.97;69.07;97769.16;3770943;78;21039;-82
2020/12/05 08:58:47;;;;;;;10.70;6.60;;;;;;;10.00;69.03;97768.53;3704687;78;21493;-81
2020/12/05 09:03:49;;;;;;;12.20;8.10;;;;;;;10.05;69.01;97768.41;3644007;80;20968;-81
2020/12/05 09:08:51;;;;;;;12.63;8.07;;;;;;;10.13;68.91;97769.55;3648150;80;21015;-79
2020/12/05 09:13:53;;;;;;;12.60;8.27;;;;;;;10.16;68.76;97766.81;3643430;79;21004;-79
2020/12/05 09:18:57;;;;;;;10.73;6.53;;;;;;;10.18;68.67;97774.74;3625218;81;21040;-79
2020/12/05 09:24:03;;;;;;;9.63;5.80;;;;;;;10.18;68.61;97768.05;3601395;81;20949;-78
2020/12/05 09:29:05;;;;;;;9.27;5.93;;;;;;;10.24;68.58;97765.49;3671634;78;21447;-80
2020/12/05 09:34:07;;;;;;;9.80;5.73;;;;;;;10.33;68.51;97755.36;3706445;80;21086;-80
2020/12/05 09:39:09;;;;;;;11.40;6.53;;;;;;;10.43;68.37;97745.16;3708012;78;21039;-81
2020/12/05 09:44:14;;;;;;;13.47;6.67;;;;;;;10.54;68.18;97751.02;3710348;78;21000;-81
2020/12/05 09:49:17;;;;;;;10.50;6.30;;;;;;;10.65;67.98;97755.52;3611264;80;21015;-80
2020/12/05 09:54:19;;;;;;;11.00;6.60;;;;;;;10.76;67.70;97746.08;3623290;80;21051;-80
2020/12/05 09:59:23;;;;;;;10.70;7.27;;;;;;;10.87;67.48;97759.16;3631431;81;21059;-81
2020/12/05 10:04:27;;;;;;;12.37;7.50;;;;;;;10.93;67.29;97761.93;3638444;81;21044;-79
2020/12/05 10:09:29;;;;;;;11.93;7.90;;;;;;;10.92;67.05;97762.47;3613542;81;21007;-80
2020/12/05 10:14:31;;;;;;;11.20;7.13;;;;;;;10.93;66.94;97762.70;3661489;80;21560;-80
2020/12/05 10:19:33;;;;;;;12.27;7.57;;;;;;;10.95;66.79;97775.25;3641033;80;21027;-79
2020/12/05 10:24:35;;;;;;;12.10;7.63;;;;;;;11.01;66.74;97778.56;3659478;79;21064;-79
2020/12/05 10:29:37;;;;;;;16.40;10.10;;;;;;;11.09;66.72;97777.78;3631619;79;21047;-79
2020/12/05 10:34:39;;;;;;;21.83;13.93;;;;;;;11.18;66.71;97780.98;3632572;80;21028;-82
2020/12/05 10:39:42;;;;;;;25.77;14.10;;;;;;;11.23;66.52;97780.83;3628920;81;21067;-79
2020/12/05 10:44:43;;;;;;;26.60;15.07;;;;;;;11.24;66.28;97771.69;3630247;80;21066;-79
2020/12/05 10:49:46;;;;;;;23.97;14.27;;;;;;;11.25;66.07;97768.69;3631133;80;21008;-80
2020/12/05 10:54:47;;;;;;;20.00;12.53;;;;;;;11.27;66.09;97778.53;3625130;80;21413;-79
2020/12/05 10:59:52;;;;;;;15.63;10.83;;;;;;;11.33;66.03;97787.20;3644539;81;21048;-79
2020/12/05 11:04:53;;;;;;;17.87;10.17;;;;;;;11.40;65.94;97787.53;3612720;80;21031;-78
2020/12/05 11:09:55;;;;;;;14.93;9.37;;;;;;;11.44;65.85;97777.75;3625117;81;21040;-78
2020/12/05 11:14:57;;;;;;;12.57;7.97;;;;;;;11.47;65.63;97771.73;3626439;80;21048;-79
2020/12/05 11:19:59;;;;;;;11.70;6.60;;;;;;;11.50;65.62;97778.90;3695264;80;21582;-81
2020/12/05 11:25:03;;;;;;;13.23;7.63;;;;;;;11.55;65.46;97775.50;3630170;79;21060;-79
2020/12/05 11:30:05;;;;;;;10.77;6.83;;;;;;;11.59;65.26;97779.69;3638804;80;21040;-77
2020/12/05 11:35:09;;;;;;;9.63;6.40;;;;;;;11.61;65.07;97788.99;3623015;81;22242;-77
2020/12/05 11:40:12;;;;;;;9.30;6.10;;;;;;;11.67;64.97;97785.59;3608266;80;21043;-73
2020/12/05 11:45:21;;;;;;;9.40;6.27;;;;;;;11.73;64.87;97774.91;3662320;79;21050;-76
2020/12/05 11:50:42;;;;;;;10.57;6.93;;;;;;;11.77;64.70;97793.28;3686876;78;21046;-75
2020/12/05 11:55:44;;;;;;;13.80;8.50;;;;;;;11.79;64.57;97790.27;3620512;81;21027;-75
2020/12/05 12:00:46;;;;;;;23.63;13.00;;;;;;;11.79;64.54;97796.45;3628254;80;21068;-75
2020/12/05 12:05:48;;;;;;;29.00;15.58;;;;;;;11.78;64.56;97789.50;3652826;80;21067;-75
2020/12/05 12:10:50;;;;;;;29.20;14.70;;;;;;;11.75;64.40;97790.14;3621797;81;21696;-76
2020/12/05 12:15:52;;;;;;;28.13;15.27;;;;;;;11.73;64.35;97793.69;3649061;81;21068;-76
2020/12/05 12:20:54;;;;;;;24.80;14.60;;;;;;;11.71;64.38;97797.25;3650049;81;21254;-76
2020/12/05 12:25:56;;;;;;;27.27;15.53;;;;;;;11.70;64.33;97802.38;3634880;81;21371;-76
2020/12/05 12:30:58;;;;;;;26.47;15.73;;;;;;;11.69;64.43;97817.45;3614044;81;21048;-75
2020/12/05 12:36:00;;;;;;;24.97;14.97;;;;;;;11.65;64.27;97817.29;3623658;81;21020;-76
2020/12/05 12:41:03;;;;;;;25.23;14.73;;;;;;;11.63;64.37;97832.93;3613475;80;21027;-75
2020/12/05 12:46:05;;;;;;;20.40;12.73;;;;;;;11.59;64.42;97835.45;3685594;80;20963;-76
2020/12/05 12:51:08;;;;;;;21.77;12.33;;;;;;;11.58;64.37;97835.77;3654412;81;21456;-76
2020/12/05 12:56:10;;;;;;;25.30;13.47;;;;;;;11.61;64.40;97841.83;3642447;81;21028;-76
2020/12/05 13:01:18;;;;;;;24.27;13.30;;;;;;;11.63;64.37;97847.69;3671078;80;21010;-76
2020/12/05 13:06:20;;;;;;;21.67;12.73;;;;;;;11.64;64.27;97846.58;3587226;80;20940;-75
2020/12/05 13:11:22;;;;;;;16.03;11.07;;;;;;;11.62;64.15;97846.09;3629442;81;21508;-76
2020/12/05 13:16:24;;;;;;;19.57;11.13;;;;;;;11.58;64.18;97849.18;3637960;81;20984;-75
2020/12/05 13:21:26;;;;;;;20.43;11.50;;;;;;;11.52;64.13;97860.63;3654198;81;21020;-75
2020/12/05 13:26:29;;;;;;;18.87;11.10;;;;;;;11.48;63.94;97862.36;3637243;81;21480;-75
2020/12/05 13:31:33;;;;;;;29.60;16.33;;;;;;;11.41;64.17;97859.37;3605294;82;21105;-76
2020/12/05 13:36:35;;;;;;;30.83;17.33;;;;;;;11.32;64.26;97882.70;3689259;80;21033;-75
2020/12/05 13:41:39;;;;;;;23.07;13.57;;;;;;;11.20;64.52;97897.52;3679656;80;21031;-75
2020/12/05 13:46:41;;;;;;;17.73;10.90;;;;;;;11.16;64.80;97901.14;3697421;80;20915;-75
2020/12/05 13:51:43;;;;;;;20.47;12.27;;;;;;;11.22;64.96;97910.60;3649581;80;21019;-75
2020/12/05 13:56:45;;;;;;;22.00;12.73;;;;;;;11.26;64.91;97917.73;3644690;81;21012;-75
2020/12/05 14:01:47;;;;;;;22.33;11.70;;;;;;;11.26;64.72;97920.41;3663583;80;21093;-75
2020/12/05 14:06:53;;;;;;;16.67;10.10;;;;;;;11.25;64.67;97922.06;3661621;81;21058;-75
2020/12/05 14:12:00;;;;;;;19.57;10.77;;;;;;;11.30;64.64;97936.11;3633850;81;21062;-74
2020/12/05 14:17:03;;;;;;;20.37;12.67;;;;;;;11.38;64.55;97937.20;3654247;79;21329;-75
2020/12/05 14:22:06;;;;;;;14.40;8.03;;;;;;;11.44;64.51;97944.02;3661979;79;21514;-75
2020/12/05 14:27:08;;;;;;;14.20;8.30;;;;;;;11.44;64.10;97939.98;3628014;79;21049;-75
2020/12/05 14:32:10;;;;;;;14.17;8.50;;;;;;;11.42;64.26;97948.11;3633709;81;20920;-74
2020/12/05 14:37:13;;;;;;;12.40;8.10;;;;;;;11.38;64.22;97944.47;3660476;81;21027;-75
2020/12/05 14:42:15;;;;;;;13.30;8.10;;;;;;;11.30;64.24;97952.72;3634383;81;21042;-75
2020/12/05 14:47:17;;;;;;;14.53;8.47;;;;;;;11.27;64.31;97966.20;3650471;81;21020;-75
2020/12/05 14:52:19;;;;;;;14.47;8.47;;;;;;;11.25;64.39;97968.42;3644526;81;21038;-75
2020/12/05 14:57:21;;;;;;;17.63;9.47;;;;;;;11.22;64.49;97979.77;3648295;81;20920;-75
2020/12/05 15:02:23;;;;;;;18.03;9.43;;;;;;;11.20;64.41;97979.84;3678047;79;21088;-75
2020/12/05 15:07:25;;;;;;;17.87;8.33;;;;;;;11.11;64.42;97976.58;3664486;81;21035;-75
2020/12/05 15:12:27;;;;;;;15.73;8.13;;;;;;;11.05;64.54;97987.75;3650105;79;21431;-75
2020/12/05 15:17:30;;;;;;;26.67;15.03;;;;;;;11.02;64.61;97990.49;3641756;79;21040;-75
2020/12/05 15:22:32;;;;;;;36.90;21.37;;;;;;;11.01;64.54;97996.98;3646636;79;20979;-76
2020/12/05 15:27:34;;;;;;;34.83;20.30;;;;;;;10.91;64.53;97999.91;3629940;79;21043;-75
2020/12/05 15:32:37;;;;;;;39.87;21.60;;;;;;;10.73;64.54;98005.73;3646409;79;21051;-74
2020/12/05 15:37:39;;;;;;;39.73;23.43;;;;;;;10.55;64.72;98011.58;3659456;79;21048;-74
2020/12/05 15:42:41;;;;;;;44.40;24.30;;;;;;;10.38;65.04;98019.74;3650188;81;21070;-75
2020/12/05 15:47:43;;;;;;;35.93;19.90;;;;;;;10.25;65.25;98024.04;3630380;79;20971;-73
2020/12/05 15:52:46;;;;;;;31.83;17.77;;;;;;;10.16;65.45;98030.42;3654394;79;21491;-74
2020/12/05 15:57:48;;;;;;;34.67;18.90;;;;;;;10.08;65.75;98031.37;3589314;81;21415;-74
2020/12/05 16:02:50;;;;;;;29.33;17.50;;;;;;;10.06;66.14;98020.19;3628018;81;21024;-74
2020/12/05 16:07:54;;;;;;;28.27;18.17;;;;;;;10.01;66.16;98017.63;3639245;80;21055;-75
2020/12/05 16:12:56;;;;;;;52.07;28.87;;;;;;;9.96;66.27;98027.13;3621355;79;21036;-74
2020/12/05 16:17:58;;;;;;;55.37;28.90;;;;;;;9.85;66.19;98031.09;3662412;79;21004;-75
2020/12/05 16:23:00;;;;;;;49.53;26.53;;;;;;;9.67;66.13;98035.52;3652360;80;21021;-76
2020/12/05 16:28:02;;;;;;;48.37;26.53;;;;;;;9.50;66.49;98030.77;3641238;80;21039;-76
2020/12/05 16:33:04;;;;;;;41.53;24.43;;;;;;;9.39;67.01;98032.31;3654712;81;21040;-76
2020/12/05 16:38:06;;;;;;;33.70;19.33;;;;;;;9.36;67.25;98033.45;3632661;81;21039;-75
2020/12/05 16:43:07;;;;;;;39.70;23.97;;;;;;;9.34;67.53;98032.41;3632853;80;21040;-77
2020/12/05 16:48:09;;;;;;;55.43;28.17;;;;;;;9.31;67.57;98029.56;3654708;81;21055;-77
2020/12/05 16:53:12;;;;;;;65.80;31.27;;;;;;;9.25;67.52;98034.22;3662913;81;20984;-77
2020/12/05 16:58:13;;;;;;;67.90;34.20;;;;;;;9.23;67.66;98037.72;3657953;81;20988;-77
2020/12/05 17:03:17;;;;;;;63.33;35.10;;;;;;;9.28;67.87;98038.18;3639842;81;21040;-76
2020/12/05 17:08:19;;;;;;;67.53;38.57;;;;;;;9.34;67.94;98036.42;3650844;80;21367;-77
2020/12/05 17:13:21;;;;;;;70.00;39.40;;;;;;;9.38;67.89;98042.75;3633954;79;21040;-77
2020/12/05 17:18:23;;;;;;;73.60;35.53;;;;;;;9.35;67.71;98035.89;3654293;80;20996;-77
2020/12/05 17:23:26;;;;;;;60.10;30.90;;;;;;;9.25;67.51;98028.31;3644145;81;21054;-77
2020/12/05 17:28:28;;;;;;;61.67;32.23;;;;;;;9.16;67.60;98022.62;3614705;79;21056;-77
2020/12/05 17:33:30;;;;;;;70.07;36.63;;;;;;;9.05;67.61;98020.69;3642770;79;21067;-74
2020/12/05 17:38:34;;;;;;;92.43;44.33;;;;;;;8.90;67.83;98023.12;3647451;79;21024;-76
2020/12/05 17:43:36;;;;;;;100.30;50.93;;;;;;;8.73;68.02;98033.04;3655744;79;21562;-77
2020/12/05 17:48:37;;;;;;;94.67;49.17;;;;;;;8.62;68.24;98043.09;3655136;79;21052;-77
2020/12/05 17:53:39;;;;;;;88.17;41.67;;;;;;;8.53;68.57;98035.50;3645745;81;21095;-77
2020/12/05 17:58:41;;;;;;;83.10;41.17;;;;;;;8.48;68.80;98040.39;3658927;79;20971;-76
2020/12/05 18:03:44;;;;;;;71.47;35.93;;;;;;;8.49;69.03;98037.16;3633417;81;21027;-75
2020/12/05 18:08:46;;;;;;;59.57;31.07;;;;;;;8.56;69.19;98048.25;3635193;80;21973;-76
2020/12/05 18:13:48;;;;;;;60.70;30.63;;;;;;;8.65;69.35;98041.16;3637029;79;21078;-77
2020/12/05 18:18:50;;;;;;;56.03;28.17;;;;;;;8.72;69.28;98049.58;3647110;81;21379;-73
2020/12/05 18:23:52;;;;;;;62.23;32.27;;;;;;;8.74;69.15;98041.28;3628024;80;21565;-77
2020/12/05 18:28:54;;;;;;;60.67;30.53;;;;;;;8.76;69.40;98046.32;3661148;81;21559;-75
2020/12/05 18:33:56;;;;;;;55.70;29.97;;;;;;;8.83;69.27;98056.88;3662609;79;21001;-76
2020/12/05 18:38:59;;;;;;;47.00;25.80;;;;;;;8.88;69.19;98047.98;3654380;81;21036;-76
2020/12/05 18:44:01;;;;;;;47.80;26.20;;;;;;;8.85;69.01;98055.25;3626379;79;21450;-75
2020/12/05 18:49:03;;;;;;;54.70;29.30;;;;;;;8.84;69.02;98050.46;3624570;78;20995;-73
2020/12/05 18:54:06;;;;;;;61.27;31.13;;;;;;;8.86;68.99;98058.18;3637063;81;21062;-74
2020/12/05 18:59:09;;;;;;;58.70;30.80;;;;;;;8.81;68.95;98050.25;3648067;81;21024;-74
2020/12/05 19:04:11;;;;;;;60.90;31.20;;;;;;;8.77;68.91;98053.25;3652643;79;21075;-74
2020/12/05 19:09:13;;;;;;;69.33;32.93;;;;;;;8.73;68.93;98049.06;3652717;80;21044;-74
2020/12/05 19:14:15;;;;;;;71.33;33.93;;;;;;;8.67;68.96;98052.33;3636403;80;21054;-74
2020/12/05 19:19:19;;;;;;;61.67;30.57;;;;;;;8.58;68.98;98043.42;3654164;81;21044;-75
2020/12/05 19:24:22;;;;;;;57.07;29.87;;;;;;;8.55;69.08;98038.68;3641090;80;21507;-76
2020/12/05 19:29:24;;;;;;;54.60;26.67;;;;;;;8.52;69.12;98036.05;3661062;79;21004;-76
2020/12/05 19:34:25;;;;;;;57.67;26.37;;;;;;;8.49;69.20;98037.97;3647957;81;21055;-75
2020/12/05 19:39:27;;;;;;;56.40;29.00;;;;;;;8.46;69.17;98032.41;3657914;81;21500;-73
2020/12/05 19:44:31;;;;;;;52.43;25.03;;;;;;;8.43;69.20;98036.98;3664032;80;20941;-74
2020/12/05 19:49:34;;;;;;;44.27;22.73;;;;;;;8.36;69.25;98042.69;3657390;81;21102;-74
2020/12/05 19:54:36;;;;;;;43.93;24.47;;;;;;;8.29;69.37;98043.05;3621174;81;21071;-75
2020/12/05 19:59:38;;;;;;;48.30;25.27;;;;;;;8.26;69.49;98044.19;3694441;80;21388;-75
2020/12/05 20:04:42;;;;;;;52.83;25.50;;;;;;;8.27;69.70;98047.08;3727342;78;21031;-74
2020/12/05 20:09:47;;;;;;;47.30;25.27;;;;;;;8.30;69.75;98046.53;3654168;80;21039;-76
2020/12/05 20:14:49;;;;;;;39.47;20.27;;;;;;;8.29;69.53;98051.05;3666141;80;21007;-76
2020/12/05 20:19:51;;;;;;;40.10;21.37;;;;;;;8.30;69.70;98049.98;3650755;80;21042;-77
2020/12/05 20:24:54;;;;;;;46.60;23.23;;;;;;;8.29;69.73;98048.39;3648296;80;20980;-76
2020/12/05 20:29:56;;;;;;;45.13;23.37;;;;;;;8.26;69.75;98051.64;3632570;79;21027;-74
2020/12/05 20:34:58;;;;;;;45.63;23.57;;;;;;;8.25;69.80;98046.59;3667793;80;21558;-74
2020/12/05 20:40:01;;;;;;;42.07;21.93;;;;;;;8.22;69.80;98050.08;3654992;80;21054;-76
2020/12/05 20:45:05;;;;;;;33.23;17.63;;;;;;;8.20;69.76;98052.81;3656470;80;21073;-75
2020/12/05 20:50:08;;;;;;;31.93;16.93;;;;;;;8.22;69.94;98051.97;3666817;80;21772;-74
2020/12/05 20:55:11;;;;;;;33.47;18.33;;;;;;;8.31;70.04;98044.09;3671319;80;21256;-75
2020/12/05 21:00:15;;;;;;;32.77;17.43;;;;;;;8.36;69.99;98042.13;3643128;81;21535;-74
2020/12/05 21:05:17;;;;;;;35.23;17.47;;;;;;;8.41;69.86;98049.28;3634488;81;21046;-74
2020/12/05 21:10:19;;;;;;;37.23;19.60;;;;;;;8.40;69.63;98043.13;3639849;81;21001;-74
2020/12/05 21:15:21;;;;;;;33.30;18.93;;;;;;;8.40;69.63;98044.47;3621713;80;21036;-76
2020/12/05 21:20:25;;;;;;;38.70;19.97;;;;;;;8.40;69.63;98039.69;3638320;81;21488;-77
2020/12/05 21:25:28;;;;;;;40.90;20.93;;;;;;;8.40;69.64;98036.46;3634324;80;21000;-76
2020/12/05 21:30:31;;;;;;;33.80;18.23;;;;;;;8.43;69.71;98036.98;3631922;80;21475;-76
2020/12/05 21:35:34;;;;;;;30.20;17.67;;;;;;;8.53;69.75;98039.50;3630690;81;21031;-76
2020/12/05 21:40:36;;;;;;;34.23;17.03;;;;;;;8.63;69.66;98043.88;3683556;79;21024;-76
2020/12/05 21:45:38;;;;;;;29.83;16.23;;;;;;;8.69;69.49;98044.05;3653118;80;21063;-76
2020/12/05 21:50:40;;;;;;;31.77;17.43;;;;;;;8.78;69.33;98060.19;3655902;80;21023;-77
2020/12/05 21:55:42;;;;;;;28.93;15.63;;;;;;;8.84;69.23;98045.13;3669588;79;21044;-77
2020/12/05 22:00:44;;;;;;;34.37;18.43;;;;;;;8.86;69.06;98035.48;3640922;81;21535;-78
2020/12/05 22:05:46;;;;;;;39.83;21.00;;;;;;;8.92;68.92;98056.20;3669481;80;21047;-77
2020/12/05 22:10:48;;;;;;;32.20;16.80;;;;;;;8.93;68.76;98055.91;3637737;81;21047;-76
2020/12/05 22:15:50;;;;;;;34.70;19.37;;;;;;;8.84;68.59;98061.67;3634837;80;20935;-73
2020/12/05 22:20:52;;;;;;;40.17;22.33;;;;;;;8.64;68.50;98070.28;3615205;81;21583;-76
2020/12/05 22:25:54;;;;;;;38.90;21.80;;;;;;;8.40;68.64;98077.83;3626637;80;20988;-78
2020/12/05 22:30:56;;;;;;;37.87;19.77;;;;;;;8.22;68.99;98078.09;3647357;80;21030;-77
2020/12/05 22:35:58;;;;;;;38.10;20.50;;;;;;;8.11;69.33;98074.55;3650895;81;20992;-78
2020/12/05 22:41:00;;;;;;;39.07;20.57;;;;;;;7.97;69.49;98069.92;3637859;80;21050;-78
2020/12/05 22:46:04;;;;;;;36.73;18.97;;;;;;;7.83;69.78;98064.50;3624930;82;20999;-77
2020/12/05 22:51:07;;;;;;;42.17;21.63;;;;;;;7.76;70.05;98066.73;3636277;79;20998;-79
2020/12/05 22:56:09;;;;;;;40.80;22.53;;;;;;;7.71;70.20;98075.61;3680876;80;20975;-78
2020/12/05 23:01:11;;;;;;;43.87;21.23;;;;;;;7.69;70.38;98075.11;3649420;81;20972;-77
2020/12/05 23:06:14;;;;;;;41.93;24.07;;;;;;;7.67;70.55;98066.59;3642056;80;21020;-77
2020/12/05 23:11:17;;;;;;;39.13;21.07;;;;;;;7.70;70.61;98067.34;3706221;80;21019;-76
2020/12/05 23:16:20;;;;;;;48.63;24.03;;;;;;;7.72;70.66;98057.73;3702632;80;20959;-77
2020/12/05 23:21:24;;;;;;;49.37;23.67;;;;;;;7.67;70.50;98055.93;3687585;80;21011;-77
2020/12/05 23:26:29;;;;;;;41.63;22.00;;;;;;;7.60;70.41;98046.71;3653740;79;21479;-78
2020/12/05 23:36:47;;;;;;;38.43;20.23;;;;;;;7.46;70.79;98045.28;3690354;78;21044;-74
2020/12/05 23:41:57;;;;;;;35.20;19.33;;;;;;;7.39;70.75;98056.28;3710775;79;21031;-76
2020/12/05 23:46:59;;;;;;;28.73;17.12;;;;;;;7.32;70.85;98057.95;3630008;80;21032;-77